Time;durP1;ratioP1;P1;durP2;ratioP2;P2;SDS_P1;SDS_P2;PMS_P1;PMS_P2;Temp;Humidity;BMP_temperature;BMP_pressure;BME280_temperature;BME280_humidity;BME280_pressure;Samples;Min_cycle;Max_cycle;Signal;HPM_P1;HPM_P2
2024/04/17 00:01:00;;;;;;;2.10;1.30;;;5.50;1.00;;;;;;5491984;26;20263;-41
2024/04/17 00:03:26;;;;;;;2.83;1.50;;;5.60;1.00;;;;;;5493403;26;20232;-39
2024/04/17 00:05:51;;;;;;;2.50;1.70;;;5.60;1.00;;;;;;5492051;26;20627;-38
2024/04/17 00:08:17;;;;;;;2.30;1.60;;;5.60;1.00;;;;;;5493205;26;20627;-42
2024/04/17 00:10:42;;;;;;;2.70;2.30;;;5.60;1.00;;;;;;5494114;26;20309;-43
2024/04/17 00:13:08;;;;;;;2.30;1.50;;;5.60;1.00;;;;;;5492244;26;20236;-40
2024/04/17 00:15:33;;;;;;;2.90;1.30;;;5.60;1.00;;;;;;5493623;26;20228;-39
2024/04/17 00:17:59;;;;;;;1.60;1.50;;;5.60;1.00;;;;;;5491995;26;20649;-41
2024/04/17 00:20:25;;;;;;;1.70;1.40;;;5.50;1.00;;;;;;5491164;26;20493;-40
2024/04/17 00:22:50;;;;;;;2.20;1.90;;;5.50;1.00;;;;;;5493626;26;20213;-39
2024/04/17 00:25:16;;;;;;;2.23;2.00;;;5.50;1.00;;;;;;5493481;26;20233;-42
2024/04/17 00:27:41;;;;;;;2.23;1.77;;;5.50;1.00;;;;;;5492758;26;20661;-41
2024/04/17 00:30:07;;;;;;;2.77;1.50;;;5.50;1.00;;;;;;5490714;26;20275;-39
2024/04/17 00:32:33;;;;;;;1.60;1.50;;;5.50;1.00;;;;;;5492418;26;20240;-43
2024/04/17 00:34:58;;;;;;;2.27;1.87;;;5.50;1.00;;;;;;5491353;26;20560;-40
2024/04/17 00:37:24;;;;;;;1.77;1.67;;;5.50;1.00;;;;;;5492878;26;20263;-40
2024/04/17 00:39:50;;;;;;;3.27;1.93;;;5.50;1.00;;;;;;5429381;26;20325;-39
2024/04/17 00:42:15;;;;;;;1.67;1.50;;;5.60;1.00;;;;;;5492131;26;20690;-38
2024/04/17 00:44:41;;;;;;;2.57;1.73;;;5.50;1.00;;;;;;5491756;26;20225;-39
2024/04/17 00:47:08;;;;;;;3.10;1.70;;;5.50;1.00;;;;;;5491578;26;20217;-39
2024/04/17 00:49:35;;;;;;;1.60;1.40;;;5.50;1.00;;;;;;5460028;26;20271;-40
2024/04/17 00:52:01;;;;;;;1.80;1.63;;;5.50;1.00;;;;;;5488788;26;20500;-40
2024/04/17 00:54:27;;;;;;;1.70;1.40;;;5.50;1.00;;;;;;5489637;26;20461;-40
2024/04/17 00:56:52;;;;;;;1.53;1.30;;;5.50;1.00;;;;;;5457334;26;20539;-40
2024/04/17 00:59:18;;;;;;;1.47;1.27;;;5.50;1.00;;;;;;5457200;26;20338;-39
2024/04/17 01:01:44;;;;;;;1.47;1.00;;;5.40;1.00;;;;;;5489352;26;20523;-39
2024/04/17 01:04:09;;;;;;;1.40;1.10;;;5.40;1.00;;;;;;5489697;26;20329;-40
2024/04/17 01:06:35;;;;;;;1.50;1.27;;;5.40;1.00;;;;;;5490677;26;20259;-39
2024/04/17 01:09:00;;;;;;;1.23;1.13;;;5.40;1.00;;;;;;5491490;26;20244;-39
2024/04/17 01:11:26;;;;;;;1.17;1.00;;;5.40;1.00;;;;;;5492169;26;20456;-39
2024/04/17 01:13:51;;;;;;;1.40;1.30;;;5.40;1.00;;;;;;5492192;26;20293;-42
2024/04/17 01:16:17;;;;;;;1.50;1.20;;;5.40;1.00;;;;;;5492029;26;20273;-40
2024/04/17 01:18:44;;;;;;;1.60;1.30;;;5.40;1.00;;;;;;5459992;26;20669;-40
2024/04/17 01:21:09;;;;;;;1.03;0.90;;;5.40;1.00;;;;;;5491097;26;20579;-39
2024/04/17 01:23:35;;;;;;;2.50;1.13;;;5.40;1.00;;;;;;5490947;26;20518;-40
2024/04/17 01:26:01;;;;;;;1.43;0.97;;;5.40;1.00;;;;;;5491447;26;20209;-39
2024/04/17 01:28:26;;;;;;;1.30;0.90;;;5.40;1.00;;;;;;5490689;26;20217;-40
2024/04/17 01:30:52;;;;;;;1.10;0.80;;;5.30;1.00;;;;;;5492146;26;20462;-38
2024/04/17 01:33:17;;;;;;;1.93;0.93;;;5.30;1.00;;;;;;5491662;26;20455;-38
2024/04/17 01:35:43;;;;;;;1.50;1.10;;;5.30;1.00;;;;;;5491898;26;20224;-39
2024/04/17 01:38:09;;;;;;;1.20;1.10;;;5.30;1.00;;;;;;5491379;26;20285;-39
2024/04/17 01:40:34;;;;;;;1.67;1.00;;;5.40;1.00;;;;;;5491402;26;20611;-39
2024/04/17 01:43:00;;;;;;;1.00;0.77;;;5.40;1.00;;;;;;5491785;26;20225;-40
2024/04/17 01:45:25;;;;;;;1.93;1.20;;;5.40;1.00;;;;;;5491184;26;20229;-39
2024/04/17 01:47:51;;;;;;;1.30;1.00;;;5.40;1.00;;;;;;5491578;26;20356;-39
2024/04/17 01:50:29;;;;;;;1.00;0.70;;;5.30;1.00;;;;;;5491104;26;20228;-38
2024/04/17 01:52:55;;;;;;;1.17;0.93;;;5.40;1.00;;;;;;5491738;26;20271;-38
2024/04/17 01:55:20;;;;;;;1.53;1.00;;;5.40;1.00;;;;;;5491034;26;20438;-40
2024/04/17 01:57:46;;;;;;;1.00;0.73;;;5.40;1.00;;;;;;5491190;26;20229;-41
2024/04/17 02:00:11;;;;;;;1.00;0.80;;;5.40;1.00;;;;;;5491543;26;20487;-38
2024/04/17 02:02:37;;;;;;;1.17;0.80;;;5.40;1.00;;;;;;5490911;26;20627;-40
2024/04/17 02:05:03;;;;;;;1.50;1.07;;;5.30;1.00;;;;;;5490954;26;20259;-38
2024/04/17 02:07:28;;;;;;;1.10;0.70;;;5.30;1.00;;;;;;5489511;26;20403;-41
2024/04/17 02:09:55;;;;;;;1.20;0.90;;;5.30;1.00;;;;;;5490857;26;20465;-37
2024/04/17 02:12:20;;;;;;;1.30;0.90;;;5.30;1.00;;;;;;5490694;26;20240;-39
2024/04/17 02:14:46;;;;;;;1.30;0.90;;;5.30;1.00;;;;;;5490635;26;20453;-38
2024/04/17 02:17:12;;;;;;;1.10;0.90;;;5.20;1.00;;;;;;5490158;26;20691;-39
2024/04/17 02:19:37;;;;;;;1.50;0.90;;;5.20;1.00;;;;;;5457871;26;20228;-39
2024/04/17 02:22:03;;;;;;;1.23;0.90;;;5.30;1.00;;;;;;5488772;26;20344;-39
2024/04/17 02:24:28;;;;;;;1.20;0.70;;;5.30;1.00;;;;;;5490483;26;20451;-39
2024/04/17 02:26:54;;;;;;;1.10;0.70;;;5.20;1.00;;;;;;5490212;26;20279;-39
2024/04/17 02:29:20;;;;;;;1.30;0.80;;;5.30;1.00;;;;;;5489850;26;20448;-40
2024/04/17 02:31:45;;;;;;;1.20;0.80;;;5.30;1.00;;;;;;5490310;26;20502;-39
2024/04/17 02:34:11;;;;;;;1.40;1.10;;;5.30;1.00;;;;;;5490177;26;20232;-39
2024/04/17 02:36:36;;;;;;;0.80;0.60;;;5.30;1.00;;;;;;5488794;26;20653;-39
2024/04/17 02:39:02;;;;;;;2.70;0.80;;;5.30;1.00;;;;;;5489341;26;20225;-39
2024/04/17 02:41:28;;;;;;;1.73;0.80;;;5.40;1.00;;;;;;5490398;26;20249;-41
2024/04/17 02:43:53;;;;;;;0.90;0.60;;;5.30;1.00;;;;;;5490303;26;20922;-41
2024/04/17 02:46:19;;;;;;;0.80;0.50;;;5.40;1.00;;;;;;5489584;26;20519;-41
2024/04/17 02:48:44;;;;;;;0.80;0.60;;;5.40;1.00;;;;;;5488953;26;20463;-42
2024/04/17 02:51:10;;;;;;;0.83;0.50;;;5.40;1.00;;;;;;5489595;26;20452;-38
2024/04/17 02:54:16;;;;;;;1.07;0.77;;;5.30;1.00;;;;;;5490037;26;20478;-38
2024/04/17 02:56:42;;;;;;;1.10;0.80;;;5.30;1.00;;;;;;5541503;25;20250;-38
2024/04/17 02:59:07;;;;;;;1.10;1.00;;;5.40;1.00;;;;;;5563853;25;20494;-41
2024/04/17 03:01:33;;;;;;;1.40;0.60;;;5.40;1.00;;;;;;5561884;25;20484;-38
2024/04/17 03:03:59;;;;;;;2.43;1.00;;;5.30;1.00;;;;;;5530387;25;20234;-40
2024/04/17 03:06:24;;;;;;;1.60;0.90;;;5.20;1.00;;;;;;5563347;25;20214;-39
2024/04/17 03:08:51;;;;;;;1.30;1.10;;;5.20;1.00;;;;;;5563088;25;20226;-39
2024/04/17 03:11:16;;;;;;;1.07;0.77;;;5.10;1.00;;;;;;5563092;25;20218;-38
2024/04/17 03:13:42;;;;;;;1.20;1.10;;;5.20;1.00;;;;;;5530512;25;20514;-39
2024/04/17 03:16:08;;;;;;;1.23;1.10;;;5.10;1.00;;;;;;5529644;25;20306;-39
2024/04/17 03:18:33;;;;;;;1.40;1.10;;;5.10;1.00;;;;;;5561924;25;20207;-41
2024/04/17 03:21:00;;;;;;;1.43;1.17;;;5.20;1.00;;;;;;5564969;25;20227;-39
2024/04/17 03:23:25;;;;;;;1.97;1.53;;;5.20;1.00;;;;;;5564388;25;20581;-39
2024/04/17 03:25:58;;;;;;;1.33;1.13;;;5.20;1.00;;;;;;5563743;25;20501;-39
2024/04/17 03:28:24;;;;;;;5.73;1.30;;;5.10;1.00;;;;;;5564219;25;20736;-41
2024/04/17 03:30:49;;;;;;;1.50;1.40;;;5.10;1.00;;;;;;5563468;25;20715;-38
2024/04/17 03:33:15;;;;;;;1.80;1.23;;;5.20;1.00;;;;;;5563231;25;20362;-39
2024/04/17 03:35:41;;;;;;;3.27;1.30;;;5.10;1.00;;;;;;5564493;25;20277;-39
2024/04/17 03:38:07;;;;;;;1.47;1.03;;;5.10;1.00;;;;;;5566428;25;20308;-39
2024/04/17 03:40:32;;;;;;;1.53;1.33;;;5.10;1.00;;;;;;5565876;25;20471;-39
2024/04/17 03:42:58;;;;;;;1.70;1.33;;;5.10;1.00;;;;;;5566643;25;20493;-40
2024/04/17 03:45:23;;;;;;;1.50;1.40;;;5.10;1.00;;;;;;5564983;25;20262;-38
2024/04/17 03:47:49;;;;;;;1.50;1.30;;;5.10;1.00;;;;;;5567260;25;20234;-38
2024/04/17 03:50:15;;;;;;;2.00;1.50;;;5.10;1.00;;;;;;5565560;25;20227;-38
2024/04/17 03:52:41;;;;;;;1.57;1.10;;;5.10;1.00;;;;;;5533001;25;20227;-39
2024/04/17 03:55:06;;;;;;;1.30;0.83;;;5.10;1.00;;;;;;5532202;25;20311;-40
2024/04/17 03:57:32;;;;;;;0.87;0.60;;;5.10;1.00;;;;;;5562885;25;20680;-41
2024/04/17 03:59:57;;;;;;;1.03;0.70;;;5.10;1.00;;;;;;5564940;25;20659;-40
2024/04/17 04:02:23;;;;;;;0.90;0.60;;;5.10;1.00;;;;;;5532245;25;20310;-38
2024/04/17 04:04:49;;;;;;;1.30;0.60;;;5.00;1.00;;;;;;5565569;25;20272;-38
2024/04/17 04:07:15;;;;;;;0.90;0.57;;;4.90;1.00;;;;;;5564325;25;20234;-38
2024/04/17 04:09:41;;;;;;;2.30;1.80;;;4.90;1.00;;;;;;5566171;25;20916;-39
2024/04/17 04:12:06;;;;;;;0.87;0.60;;;4.90;1.00;;;;;;5565620;25;20228;-38
2024/04/17 04:14:32;;;;;;;1.00;0.60;;;4.80;1.00;;;;;;5567020;25;20302;-38
2024/04/17 04:16:58;;;;;;;2.70;0.80;;;4.70;1.00;;;;;;5565991;25;20671;-37
2024/04/17 04:19:23;;;;;;;1.30;0.83;;;4.70;1.00;;;;;;5565466;25;20310;-38
2024/04/17 04:21:49;;;;;;;0.70;0.40;;;4.70;1.00;;;;;;5562512;25;20226;-38
2024/04/17 04:24:15;;;;;;;0.90;0.50;;;4.60;1.00;;;;;;5562433;25;20226;-39
2024/04/17 04:26:40;;;;;;;1.23;0.70;;;4.60;1.00;;;;;;5563234;25;20269;-40
2024/04/17 04:29:06;;;;;;;1.20;0.80;;;4.60;1.00;;;;;;5564294;25;20753;-40
2024/04/17 04:31:32;;;;;;;1.00;0.60;;;4.70;1.00;;;;;;5530130;25;20257;-39
2024/04/17 04:33:58;;;;;;;1.00;0.73;;;4.70;1.00;;;;;;5564643;25;20210;-39
2024/04/17 04:36:23;;;;;;;1.60;1.40;;;4.70;1.00;;;;;;5562265;25;20275;-38
2024/04/17 04:38:50;;;;;;;1.50;1.20;;;4.80;1.00;;;;;;5563728;25;20447;-38
2024/04/17 04:41:17;;;;;;;1.40;1.30;;;4.80;1.00;;;;;;5564701;25;20674;-39
2024/04/17 04:43:42;;;;;;;2.60;1.73;;;4.90;1.00;;;;;;5564458;25;20502;-39
2024/04/17 04:46:09;;;;;;;1.00;0.77;;;4.90;1.00;;;;;;5565632;25;20446;-40
2024/04/17 04:48:34;;;;;;;1.80;1.17;;;4.90;1.00;;;;;;5564962;25;20215;-39
2024/04/17 04:51:00;;;;;;;3.67;2.30;;;4.90;1.00;;;;;;5565631;25;20536;-39
2024/04/17 04:53:25;;;;;;;1.80;1.57;;;4.80;1.00;;;;;;5564107;25;20504;-40
2024/04/17 04:55:58;;;;;;;3.40;1.57;;;4.80;1.00;;;;;;5529787;25;20338;-39
2024/04/17 04:58:24;;;;;;;1.57;1.30;;;4.80;1.00;;;;;;5561561;25;20231;-39
2024/04/17 05:00:50;;;;;;;2.40;2.20;;;4.90;1.00;;;;;;5529935;25;20485;-39
2024/04/17 05:03:16;;;;;;;6.80;2.30;;;4.90;1.00;;;;;;5563039;25;20451;-40
2024/04/17 05:05:41;;;;;;;2.50;1.93;;;5.00;1.00;;;;;;5563160;25;20954;-39
2024/04/17 05:08:07;;;;;;;3.23;2.43;;;5.10;1.00;;;;;;5562562;25;20599;-39
2024/04/17 05:10:32;;;;;;;3.10;2.80;;;5.10;1.00;;;;;;5560589;25;20230;-40
2024/04/17 05:12:58;;;;;;;3.03;2.83;;;5.20;1.00;;;;;;5558586;25;20256;-39
2024/04/17 05:15:24;;;;;;;3.20;2.90;;;5.20;1.00;;;;;;5559893;25;20536;-39
2024/04/17 05:17:49;;;;;;;3.13;2.80;;;5.20;1.00;;;;;;5555147;25;20593;-39
2024/04/17 05:20:15;;;;;;;3.00;2.70;;;5.30;1.00;;;;;;5553865;25;20683;-41
2024/04/17 05:22:40;;;;;;;3.53;2.80;;;5.30;1.00;;;;;;5554547;25;20231;-39
2024/04/17 05:25:07;;;;;;;4.40;4.00;;;5.30;1.00;;;;;;5558384;25;20227;-39
2024/04/17 05:27:32;;;;;;;4.60;4.10;;;5.40;1.00;;;;;;5561951;25;20215;-40
2024/04/17 05:29:58;;;;;;;5.87;4.30;;;5.40;1.00;;;;;;5560657;25;20466;-38
2024/04/17 05:32:24;;;;;;;7.93;7.17;;;5.50;1.00;;;;;;5561241;25;20632;-38
2024/04/17 05:34:50;;;;;;;6.60;6.00;;;5.50;1.00;;;;;;5561467;25;20816;-39
2024/04/17 05:37:16;;;;;;;16.33;14.70;;;5.50;1.00;;;;;;5527039;25;20238;-39
2024/04/17 05:39:41;;;;;;;11.50;10.33;;;5.60;1.00;;;;;;5558792;25;20282;-39
2024/04/17 05:42:07;;;;;;;6.00;5.50;;;5.70;1.00;;;;;;5559106;25;20334;-39
2024/04/17 05:44:32;;;;;;;7.83;7.10;;;5.70;1.00;;;;;;5558999;25;20466;-39
2024/04/17 05:46:58;;;;;;;11.60;10.60;;;5.70;1.00;;;;;;5553201;25;20672;-39
2024/04/17 05:49:24;;;;;;;11.97;10.80;;;5.70;1.00;;;;;;5559734;25;20230;-41
2024/04/17 05:51:50;;;;;;;11.83;10.57;;;5.70;1.00;;;;;;5558698;25;20207;-40
2024/04/17 05:54:15;;;;;;;16.90;13.00;;;5.70;1.00;;;;;;5562158;25;20265;-41
2024/04/17 05:56:41;;;;;;;13.70;11.03;;;5.70;1.00;;;;;;5560222;25;20471;-40
2024/04/17 05:59:06;;;;;;;18.80;16.80;;;5.80;1.00;;;;;;5528867;25;20326;-39
2024/04/17 06:01:32;;;;;;;13.00;11.70;;;5.80;1.00;;;;;;5562927;25;20219;-39
2024/04/17 06:03:58;;;;;;;8.27;7.47;;;5.90;1.00;;;;;;5527249;25;20222;-41
2024/04/17 06:06:23;;;;;;;7.93;7.13;;;6.00;1.00;;;;;;5529826;25;20307;-39
2024/04/17 06:08:49;;;;;;;9.03;8.10;;;6.00;1.00;;;;;;5558999;25;20329;-39
2024/04/17 06:11:15;;;;;;;8.83;7.87;;;6.00;1.00;;;;;;5556432;25;20297;-40
2024/04/17 06:13:41;;;;;;;7.30;6.50;;;6.00;1.00;;;;;;5495717;25;20257;-39
2024/04/17 06:16:07;;;;;;;7.57;6.77;;;6.00;1.00;;;;;;5560474;25;20896;-39
2024/04/17 06:18:33;;;;;;;9.07;8.17;;;6.00;1.00;;;;;;5559791;25;20257;-40
2024/04/17 06:20:58;;;;;;;9.53;8.50;;;5.90;1.00;;;;;;5561392;25;20451;-40
2024/04/17 06:23:24;;;;;;;10.50;8.60;;;6.00;1.00;;;;;;5559160;25;20282;-42
2024/04/17 06:25:49;;;;;;;7.50;6.80;;;6.00;1.00;;;;;;5528415;25;20634;-39
2024/04/17 06:28:15;;;;;;;9.17;7.70;;;6.10;1.00;;;;;;5561092;25;20273;-39
2024/04/17 06:30:41;;;;;;;8.20;7.07;;;6.10;1.00;;;;;;5562600;25;20219;-39
2024/04/17 06:33:06;;;;;;;10.03;7.50;;;6.10;1.00;;;;;;5561849;25;20503;-37
2024/04/17 06:35:35;;;;;;;8.43;7.30;;;6.00;1.00;;;;;;5559731;25;20473;-40
2024/04/17 06:38:01;;;;;;;8.40;7.60;;;6.00;1.00;;;;;;5562411;25;20268;-38
2024/04/17 06:40:27;;;;;;;7.20;6.50;;;5.90;1.00;;;;;;5562375;25;20458;-39
2024/04/17 06:42:52;;;;;;;8.57;7.37;;;5.90;1.00;;;;;;5562604;25;20215;-40
2024/04/17 06:45:18;;;;;;;10.07;7.50;;;5.90;1.00;;;;;;5562007;25;20227;-41
2024/04/17 06:47:44;;;;;;;8.50;7.70;;;6.00;1.00;;;;;;5530084;25;20341;-39
2024/04/17 06:50:10;;;;;;;7.37;6.33;;;6.00;1.00;;;;;;5563341;25;20327;-41
2024/04/17 06:52:36;;;;;;;8.23;6.80;;;6.10;1.00;;;;;;5562992;25;20545;-39
2024/04/17 06:55:02;;;;;;;7.53;6.73;;;6.20;1.00;;;;;;5502443;25;20520;-40
2024/04/17 06:57:28;;;;;;;6.47;5.70;;;6.20;1.00;;;;;;5564914;25;20936;-39
2024/04/17 06:59:55;;;;;;;5.37;4.70;;;6.30;1.00;;;;;;5563437;25;20470;-39
2024/04/17 07:02:21;;;;;;;4.53;4.13;;;6.30;99.90;;;;;;5565757;25;20260;-40
2024/04/17 07:04:46;;;;;;;5.20;4.70;;;6.30;99.90;;;;;;5566049;25;20596;-42
2024/04/17 07:07:12;;;;;;;4.57;4.17;;;6.30;99.90;;;;;;5568050;25;20214;-40
2024/04/17 07:09:38;;;;;;;5.57;5.00;;;6.40;99.90;;;;;;5566641;25;20226;-39
2024/04/17 07:12:05;;;;;;;6.60;6.00;;;6.50;99.90;;;;;;5565988;25;20629;-40
2024/04/17 07:14:31;;;;;;;9.23;8.30;;;6.50;99.90;;;;;;5567461;25;20307;-38
2024/04/17 07:16:57;;;;;;;8.93;8.03;;;6.50;99.90;;;;;;5567115;25;20708;-39
2024/04/17 07:19:24;;;;;;;7.50;6.80;;;6.40;99.90;;;;;;5566747;25;20238;-39
2024/04/17 07:21:50;;;;;;;8.40;7.60;;;6.40;99.90;;;;;;5565939;25;20306;-39
2024/04/17 07:24:16;;;;;;;9.60;8.17;;;6.30;99.90;;;;;;5567276;25;20506;-40
2024/04/17 07:26:42;;;;;;;12.10;9.80;;;6.20;99.90;;;;;;5565060;25;20701;-40
2024/04/17 07:29:07;;;;;;;4.83;4.37;;;6.20;1.00;;;;;;5533630;25;20281;-40
2024/04/17 07:31:33;;;;;;;9.70;6.43;;;6.10;99.90;;;;;;5566211;25;20572;-39
2024/04/17 07:33:58;;;;;;;5.67;4.73;;;6.00;99.90;;;;;;5564445;25;20265;-39
2024/04/17 07:36:24;;;;;;;6.27;5.03;;;5.90;99.90;;;;;;5501975;25;20323;-39
2024/04/17 07:38:50;;;;;;;16.33;10.47;;;5.80;99.90;;;;;;5527981;25;20228;-39
2024/04/17 07:41:15;;;;;;;11.10;6.97;;;5.80;99.90;;;;;;5528230;25;20719;-39
2024/04/17 07:43:41;;;;;;;12.67;7.93;;;5.80;99.90;;;;;;5529679;25;20649;-39
2024/04/17 07:46:07;;;;;;;13.13;8.57;;;5.70;99.90;;;;;;5529042;25;20647;-38
2024/04/17 07:48:33;;;;;;;26.83;15.37;;;5.60;99.90;;;;;;5529743;25;20594;-40
2024/04/17 07:50:58;;;;;;;13.10;11.70;;;5.60;99.90;;;;;;5529547;25;20504;-38
2024/04/17 07:53:24;;;;;;;10.60;7.20;;;5.50;1.00;;;;;;5467225;25;20278;-48
2024/04/17 07:55:50;;;;;;;27.93;17.03;;;5.50;1.00;;;;;;5529225;25;20232;-37
2024/04/17 07:58:15;;;;;;;6.93;6.23;;;5.50;1.00;;;;;;5528813;25;20266;-39
2024/04/17 08:00:41;;;;;;;13.13;10.20;;;5.40;1.00;;;;;;5528002;25;20583;-39
2024/04/17 08:03:07;;;;;;;7.10;6.33;;;5.50;1.00;;;;;;5529342;25;20270;-38
2024/04/17 08:05:33;;;;;;;5.70;4.90;;;5.50;1.00;;;;;;5527823;25;20274;-39
2024/04/17 08:08:00;;;;;;;7.20;4.63;;;5.50;1.00;;;;;;5494511;26;20452;-39
2024/04/17 08:10:25;;;;;;;4.50;3.17;;;5.60;1.00;;;;;;5528391;25;20228;-39
2024/04/17 08:13:04;;;;;;;3.50;3.20;;;5.60;1.00;;;;;;5527278;25;20490;-40
2024/04/17 08:15:30;;;;;;;4.90;4.20;;;5.50;1.00;;;;;;5497027;26;20255;-39
2024/04/17 08:17:55;;;;;;;6.10;4.67;;;5.50;1.00;;;;;;5495138;25;20923;-38
2024/04/17 08:20:21;;;;;;;7.30;5.40;;;5.50;1.00;;;;;;5529887;25;20278;-39
2024/04/17 08:22:46;;;;;;;3.37;2.93;;;5.70;1.00;;;;;;5529268;25;20478;-38
2024/04/17 08:25:12;;;;;;;5.17;2.57;;;5.70;1.00;;;;;;5529322;25;20216;-39
2024/04/17 08:27:37;;;;;;;4.03;2.50;;;5.70;1.00;;;;;;5528494;26;20577;-39
2024/04/17 08:30:03;;;;;;;4.93;4.03;;;5.80;1.00;;;;;;5526920;25;20339;-39
2024/04/17 08:32:29;;;;;;;3.30;3.00;;;5.80;1.00;;;;;;5527243;25;20224;-39
2024/04/17 08:34:55;;;;;;;4.60;4.20;;;6.00;1.00;;;;;;5527420;25;20772;-38
2024/04/17 08:37:21;;;;;;;3.73;3.33;;;6.20;1.00;;;;;;5527758;25;20501;-39
2024/04/17 08:39:47;;;;;;;7.57;4.90;;;6.50;1.00;;;;;;5526772;25;20433;-39
2024/04/17 08:42:17;;;;;;;10.87;10.07;;;6.80;1.00;;;;;;5462981;26;20468;-39
2024/04/17 08:44:42;;;;;;;8.13;7.53;;;7.00;99.90;;;;;;5527445;26;20285;-38
2024/04/17 08:47:09;;;;;;;8.07;7.37;;;7.30;99.90;;;;;;5493043;26;20536;-39
2024/04/17 08:49:36;;;;;;;7.30;5.70;;;7.40;99.90;;;;;;5528036;25;20339;-40
2024/04/17 08:52:03;;;;;;;4.20;3.80;;;7.40;99.90;;;;;;5525387;25;20752;-40
2024/04/17 08:54:29;;;;;;;4.73;4.33;;;7.60;99.90;;;;;;5527699;25;20901;-39
2024/04/17 08:56:56;;;;;;;6.37;5.77;;;7.80;99.90;;;;;;5525800;25;20495;-39
2024/04/17 08:59:21;;;;;;;7.30;6.20;;;7.60;99.90;;;;;;5492846;26;20456;-41
2024/04/17 09:01:47;;;;;;;6.20;5.40;;;7.60;99.90;;;;;;5527485;25;20536;-39
2024/04/17 09:04:14;;;;;;;7.47;6.67;;;7.50;82.80;;;;;;5494251;25;20729;-38
2024/04/17 09:06:40;;;;;;;7.37;5.57;;;7.40;22.90;;;;;;5494728;26;20425;-39
2024/04/17 09:09:09;;;;;;;3.30;3.00;;;7.30;99.90;;;;;;5492537;26;20513;-38
2024/04/17 09:11:35;;;;;;;2.93;2.73;;;7.10;32.30;;;;;;5492476;25;20899;-40
2024/04/17 09:14:01;;;;;;;3.23;2.93;;;7.10;99.60;;;;;;5494504;25;20452;-39
2024/04/17 09:16:27;;;;;;;4.80;3.80;;;6.80;99.90;;;;;;5526929;25;20456;-39
2024/04/17 09:18:54;;;;;;;5.00;4.50;;;6.90;99.90;;;;;;5525977;26;20599;-40
2024/04/17 09:21:19;;;;;;;4.80;3.37;;;6.90;99.90;;;;;;5527193;25;20439;-43
2024/04/17 09:23:45;;;;;;;6.87;5.00;;;7.40;1.00;;;;;;5524606;26;20452;-43
2024/04/17 09:26:14;;;;;;;7.10;4.47;;;8.10;1.00;;;;;;5525563;25;20526;-44
2024/04/17 09:28:40;;;;;;;8.90;3.80;;;8.70;1.00;;;;;;5526059;25;20231;-43
2024/04/17 09:31:10;;;;;;;7.50;4.07;;;9.40;1.00;;;;;;5525282;25;20523;-44
2024/04/17 09:33:41;;;;;;;4.93;4.30;;;10.00;99.90;;;;;;5493354;25;20480;-42
2024/04/17 09:36:07;;;;;;;4.73;3.70;;;10.50;38.00;;;;;;5524921;25;20441;-44
2024/04/17 09:38:33;;;;;;;4.30;3.90;;;10.70;99.90;;;;;;5523028;25;20821;-44
2024/04/17 09:40:58;;;;;;;5.00;4.53;;;10.70;1.00;;;;;;5525160;25;20232;-45
2024/04/17 09:43:25;;;;;;;5.10;4.30;;;10.80;1.00;;;;;;5524078;26;20243;-44
2024/04/17 09:45:58;;;;;;;5.20;3.17;;;10.90;22.20;;;;;;5522509;25;20211;-42
2024/04/17 09:48:27;;;;;;;7.50;4.33;;;11.10;99.90;;;;;;5524711;25;20514;-44
2024/04/17 09:50:59;;;;;;;6.50;5.23;;;11.50;1.00;;;;;;5525047;25;20448;-41
2024/04/17 09:53:37;;;;;;;6.70;6.17;;;11.70;99.90;;;;;;5492764;26;20445;-39
2024/04/17 09:56:06;;;;;;;5.83;5.33;;;10.90;1.00;;;;;;5524593;25;20465;-42
2024/04/17 09:58:32;;;;;;;6.60;6.10;;;10.60;99.90;;;;;;5494384;26;20491;-39
2024/04/17 10:01:06;;;;;;;7.07;6.47;;;10.40;1.00;;;;;;5492584;26;20737;-40
2024/04/17 10:03:33;;;;;;;7.43;6.73;;;10.10;1.00;;;;;;5526372;25;20659;-39
2024/04/17 10:06:02;;;;;;;7.23;6.33;;;9.80;89.10;;;;;;5493775;26;20452;-41
2024/04/17 10:08:32;;;;;;;11.20;7.43;;;9.80;1.00;;;;;;5524768;25;20509;-40
2024/04/17 10:10:59;;;;;;;7.30;6.20;;;9.90;1.00;;;;;;5525275;25;20459;-42
2024/04/17 10:13:25;;;;;;;6.20;5.60;;;9.80;1.00;;;;;;5525538;26;20491;-40
2024/04/17 10:15:51;;;;;;;8.10;7.30;;;9.70;1.00;;;;;;5524073;25;20866;-39
2024/04/17 10:18:17;;;;;;;7.13;6.43;;;9.60;1.00;;;;;;5492637;26;20449;-39
2024/04/17 10:20:42;;;;;;;12.87;8.13;;;9.30;1.00;;;;;;5525761;25;20722;-39
2024/04/17 10:23:09;;;;;;;9.97;8.87;;;8.90;99.90;;;;;;5490535;26;20633;-39
2024/04/17 10:25:46;;;;;;;7.33;6.63;;;8.40;1.00;;;;;;5520530;25;20370;-41
2024/04/17 10:28:13;;;;;;;12.33;11.13;;;8.00;99.90;;;;;;5488683;25;20490;-40
2024/04/17 10:30:39;;;;;;;8.30;7.50;;;7.90;1.00;;;;;;5525787;25;20444;-40
2024/04/17 10:33:33;;;;;;;7.13;6.43;;;7.90;1.00;;;;;;5526772;26;21047;-36
2024/04/17 10:36:04;;;;;;;9.30;7.97;;;8.10;23.90;;;;;;5525486;25;20451;-35
2024/04/17 10:38:30;;;;;;;10.10;7.73;;;8.70;1.00;;;;;;5527312;25;20452;-37
2024/04/17 10:40:57;;;;;;;9.50;7.77;;;9.30;1.00;;;;;;5528940;25;20672;-36
2024/04/17 10:43:23;;;;;;;9.77;8.77;;;9.90;1.00;;;;;;5528291;25;20716;-36
2024/04/17 10:46:04;;;;;;;12.10;10.20;;;10.40;22.60;;;;;;5496136;25;20448;-36
2024/04/17 10:48:29;;;;;;;8.60;7.80;;;11.30;1.00;;;;;;5527372;25;20546;-37
2024/04/17 10:50:56;;;;;;;11.50;8.03;;;11.90;1.00;;;;;;5528940;26;20463;-36
2024/04/17 10:53:22;;;;;;;7.70;6.67;;;12.50;1.00;;;;;;5525837;25;20287;-36
2024/04/17 10:55:50;;;;;;;8.97;6.60;;;12.60;1.00;;;;;;5527409;25;21205;-37
2024/04/17 10:58:17;;;;;;;10.77;8.20;;;12.20;99.90;;;;;;5526990;25;20609;-35
2024/04/17 11:00:42;;;;;;;9.10;7.87;;;11.50;1.00;;;;;;5528153;25;20896;-36
2024/04/17 11:03:11;;;;;;;8.30;6.37;;;10.90;99.90;;;;;;5527197;25;20575;-37
2024/04/17 11:05:36;;;;;;;10.80;9.70;;;10.20;99.90;;;;;;5491557;26;20231;-38
2024/04/17 11:08:02;;;;;;;9.53;7.47;;;10.10;99.90;;;;;;5494281;26;20511;-37
2024/04/17 11:10:28;;;;;;;7.90;7.10;;;10.60;1.00;;;;;;5527770;26;20224;-37
2024/04/17 11:12:53;;;;;;;6.40;5.80;;;11.90;1.00;;;;;;5489290;26;20323;-37
2024/04/17 11:15:19;;;;;;;7.67;6.27;;;13.10;1.00;;;;;;5524269;25;20216;-37
2024/04/17 11:17:45;;;;;;;9.67;6.10;;;14.00;1.00;;;;;;5523234;26;20708;-37
2024/04/17 11:20:10;;;;;;;8.37;7.20;;;14.60;99.90;;;;;;5527408;25;20423;-36
2024/04/17 11:22:36;;;;;;;9.27;5.97;;;14.40;99.90;;;;;;5524680;25;20993;-45
2024/04/17 11:25:04;;;;;;;6.27;5.77;;;14.10;99.90;;;;;;5524355;25;20257;-45
2024/04/17 11:27:29;;;;;;;6.10;5.50;;;13.50;99.90;;;;;;5526193;25;20262;-45
2024/04/17 11:29:56;;;;;;;7.87;7.10;;;12.80;99.90;;;;;;5525423;25;20460;-53
2024/04/17 11:32:22;;;;;;;7.27;6.37;;;12.50;99.90;;;;;;5526634;25;20859;-45
2024/04/17 11:34:48;;;;;;;7.93;7.13;;;12.30;99.90;;;;;;5493289;26;20683;-45
2024/04/17 11:37:15;;;;;;;11.60;6.40;;;11.70;99.90;;;;;;5524636;25;20243;-46
2024/04/17 11:39:41;;;;;;;9.40;6.87;;;11.60;1.00;;;;;;5524710;25;20897;-46
2024/04/17 11:42:09;;;;;;;7.90;6.90;;;11.50;1.00;;;;;;5526422;25;20494;-45
2024/04/17 11:44:36;;;;;;;13.63;7.03;;;11.40;7.40;;;;;;5524895;25;20444;-45
2024/04/17 11:47:02;;;;;;;6.70;6.10;;;11.30;1.00;;;;;;5527658;25;20493;-45
2024/04/17 11:49:28;;;;;;;7.10;6.37;;;11.40;1.00;;;;;;5494934;25;20982;-45
2024/04/17 11:51:53;;;;;;;7.33;6.00;;;11.40;65.90;;;;;;5524756;25;20716;-45
2024/04/17 11:54:19;;;;;;;8.53;6.23;;;11.20;1.00;;;;;;5492658;25;20277;-46
2024/04/17 11:56:45;;;;;;;10.93;5.97;;;11.10;99.90;;;;;;5525592;25;20244;-45
2024/04/17 11:59:10;;;;;;;7.80;6.30;;;11.30;99.90;;;;;;5493644;25;20227;-45
2024/04/17 12:01:36;;;;;;;6.47;5.57;;;11.80;26.90;;;;;;5527525;25;20360;-45
2024/04/17 12:04:01;;;;;;;8.10;5.87;;;12.30;1.00;;;;;;5526827;25;20683;-45
2024/04/17 12:06:27;;;;;;;7.67;5.00;;;12.50;1.00;;;;;;5527831;25;20211;-45
2024/04/17 12:08:53;;;;;;;5.10;4.60;;;12.60;99.90;;;;;;5526777;25;20417;-45
2024/04/17 12:11:19;;;;;;;8.23;5.63;;;14.20;99.90;;;;;;5525935;25;20676;-45
2024/04/17 12:13:44;;;;;;;6.23;4.67;;;16.00;99.90;;;;;;5526070;25;20273;-45
2024/04/17 12:16:10;;;;;;;4.53;4.13;;;17.20;1.00;;;;;;5528372;25;20219;-46
2024/04/17 12:18:38;;;;;;;6.93;5.37;;;15.70;1.00;;;;;;5527402;25;20882;-45
2024/04/17 12:21:04;;;;;;;7.03;5.30;;;15.60;1.00;;;;;;5527725;25;20281;-45
2024/04/17 12:23:31;;;;;;;6.40;4.57;;;15.00;1.00;;;;;;5546865;25;20463;-45
2024/04/17 12:28:41;;;;;;;6.00;5.13;;;14.20;1.00;;;;;;5563225;25;20509;-45
2024/04/17 12:31:07;;;;;;;4.70;4.30;;;13.50;1.00;;;;;;5531631;25;20439;-46
2024/04/17 12:33:32;;;;;;;6.83;4.90;;;12.30;1.00;;;;;;5562355;25;20493;-45
2024/04/17 12:35:58;;;;;;;8.43;5.33;;;11.50;1.00;;;;;;5563049;25;20595;-45
2024/04/17 12:38:24;;;;;;;4.73;4.23;;;10.90;99.90;;;;;;5563828;25;20913;-45
2024/04/17 12:40:49;;;;;;;5.43;4.10;;;9.80;1.00;;;;;;5530452;25;20231;-45
2024/04/17 12:43:16;;;;;;;3.57;3.20;;;8.70;99.90;;;;;;5559821;25;20219;-45
2024/04/17 12:45:41;;;;;;;3.40;3.10;;;7.70;1.00;;;;;;5562413;25;20603;-45
2024/04/17 12:48:10;;;;;;;3.70;3.40;;;6.70;99.90;;;;;;5563467;25;20480;-45
2024/04/17 12:50:36;;;;;;;5.73;5.33;;;6.30;1.00;;;;;;5527890;25;20566;-45
2024/04/17 12:53:02;;;;;;;15.57;14.13;;;5.90;34.90;;;;;;5564720;25;20498;-45
2024/04/17 12:55:28;;;;;;;4.57;4.00;;;5.70;99.90;;;;;;5563754;25;20492;-45
2024/04/17 13:01:16;;;;;;;3.50;3.10;;;5.30;99.90;;;;;;5562896;25;20485;-45